This is the latest recevied weather packets stored in our database for station/object ES0THZ-9. If no packets are shown the sender has not sent any weather packets the latest 10 day(s).
| Time | Temp. | Humidity | Pressure | Rain* | Wind** | Luminosity | Snow |
|---|---|---|---|---|---|---|---|
| 1777625703 | 15.56° C | 66% | 1022.5 hPa | 0 mm | - | - | - |
| 1777624799 | 16.67° C | 63% | 1022.6 hPa | 0 mm | - | - | - |
| 1777623597 | 17.22° C | 63% | 1022.7 hPa | 0 mm | - | - | - |
| 1777622994 | 17.78° C | 61% | 1022.7 hPa | 0 mm | - | - | - |
| 1777613983 | 11.11° C | 77% | 1022.9 hPa | 0 mm | - | - | - |
| 1777612760 | 9.44° C | 80% | 1022.9 hPa | 0 mm | - | - | - |
| 1777610954 | 7.78° C | 85% | 1023 hPa | 0 mm | - | - | - |
| 1777606740 | 5° C | 91% | 1023.2 hPa | 0 mm | - | - | - |
| 1777602526 | 3.89° C | 91% | 1023.2 hPa | 0 mm | - | - | - |
| 1777601321 | 3.89° C | 90% | 1023.2 hPa | 0 mm | - | - | - |
| 1777600719 | 3.89° C | 90% | 1023.2 hPa | 0 mm | - | - | - |
| 1777596505 | 4.44° C | 89% | 1023.3 hPa | 0 mm | - | - | - |
| 1777595301 | 4.44° C | 89% | 1023.3 hPa | 0 mm | - | - | - |
| 1777592292 | 4.44° C | 88% | 1023.4 hPa | 0 mm | - | - | - |
| 1777591088 | 5° C | 87% | 1023.4 hPa | 0 mm | - | - | - |
| 1777586291 | 5.56° C | 86% | 1023.2 hPa | 0 mm | - | - | - |
| 1777580854 | 6.67° C | 83% | 1023.2 hPa | 0 mm | - | - | - |
| 1777580251 | 6.67° C | 83% | 1023.3 hPa | 0 mm | - | - | - |
| 1777577241 | 8.33° C | 79% | 1023.4 hPa | 0 mm | - | - | - |
| 1777574833 | 8.89° C | 77% | 1023.4 hPa | 0 mm | - | - | - |
| 1777571241 | 10.56° C | 73% | 1023.1 hPa | 0 mm | - | - | - |
| 1777565201 | 12.78° C | 70% | 1023.1 hPa | 0 mm | - | - | - |
| 1777563998 | 12.78° C | 70% | 1023.2 hPa | 0 mm | - | - | - |
| 1777562793 | 12.78° C | 71% | 1023.2 hPa | 0 mm | - | - | - |
| 1777560405 | 12.78° C | 71% | 1023.3 hPa | 0 mm | - | - | - |
* Rain latest hour (hover to see other rain measurements)
** Current wind speed in m/s (hover to see current wind gust speed)